METAR ET TAF INFORMATION
METAR FOR ENSD
ADDS - METARS form results

(0823 UTC 25 June 2019)
Data provider http://aviationweather.gov/metar/data/
 
METAR text: ENSD 250750Z 05004KT 9999 VCSH FEW003 BKN065 13/13 Q1024 RMK WIND 1138FT VRB01KT
Conditions at: ENSD (SANDANE/ANDA , NO) observed 0750 UTC 25 June 2019
Temperature: 13.0°C (55°F)
Dewpoint: 13.0°C (55°F) [RH = 100%]
Pressure (altimeter): 30.24 inches Hg (1024.0 mb)
Winds: from the NE (50 degrees) at 5 MPH (4 knots; 2.1 m/s)
Visibility: 6 or more miles (10+ km)
Ceiling: 6500 feet AGL
Clouds: few clouds at 300 feet AGL
broken clouds at 6500 feet AGL
Weather: VCSH  (showers in vicinity)

 AÉROPORT DE AÉROPORT

 INFORMATIONS DE PISTE
Piste 09 Longueur de la piste 2756 ft Largeur de la piste 98 ft
Élévation de la piste 181 ft Seuil de la piste déplacés 0 ft Runway heading 0
Piste 27 Longueur de la piste 2756 ft Largeur de la piste 98 ft
Élévation de la piste 179 ft Seuil de la piste déplacés 0 ft Runway heading 0

 AÉROPORT FRÉQUENCES

 SIDA DE NAVIGATION
Type NDB Nom Anda Féquence 288 KHZ



Powered by Virtual Airlines Manager [v2.6.2]